This is the latest recevied weather packets stored in our database for station/object OH1KK. If no packets are shown the sender has not sent any weather packets the latest 1 day(s).
| Time | Temp. | Humidity | Pressure | Rain* | Wind** | Luminosity | Snow |
|---|---|---|---|---|---|---|---|
| 1777982671 | 7.78° C | 43% | 992.1 hPa | 0 mm | 2.68 m/s, 282° | - | - |
| 1777981757 | 7.78° C | 44% | 992.1 hPa | 0 mm | 3.58 m/s, 294° | - | - |
| 1777980842 | 7.78° C | 44% | 991.9 hPa | 0 mm | 4.02 m/s, 294° | - | - |
| 1777979988 | 7.78° C | 44% | 991.8 hPa | 0 mm | 4.47 m/s, 284° | - | - |
| 1777978158 | 6.11° C | 48% | 991.7 hPa | 0 mm | 2.68 m/s, 326° | - | - |
| 1777977243 | 6.11° C | 51% | 991.6 hPa | 0 mm | 2.68 m/s, 354° | - | - |
| 1777976388 | 6.11° C | 52% | 991.3 hPa | 0 mm | 3.13 m/s, 309° | - | - |
| 1777975473 | 6.11° C | 54% | 991.1 hPa | 0 mm | 4.47 m/s, 266° | - | - |
| 1777974559 | 5.56° C | 57% | 990.9 hPa | 0 mm | 0.89 m/s, 218° | - | - |
| 1777972790 | 5.56° C | 58% | 990.7 hPa | 0 mm | 3.58 m/s, 262° | - | - |
| 1777970960 | 5° C | 59% | 990.2 hPa | 0 mm | 4.02 m/s, 292° | - | - |
| 1777970044 | 5° C | 62% | 989.9 hPa | 0 mm | 1.79 m/s, 328° | - | - |
| 1777969190 | 5.56° C | 62% | 989.6 hPa | 0 mm | 3.58 m/s, 260° | - | - |
| 1777968276 | 6.11° C | 61% | 989.6 hPa | 0 mm | 3.58 m/s, 274° | - | - |
| 1777966445 | 5.56° C | 65% | 989.6 hPa | 0 mm | 3.58 m/s, 233° | - | - |
| 1777965590 | 4.44° C | 69% | 989.3 hPa | 0 mm | 3.13 m/s, 311° | - | - |
| 1777964676 | 4.44° C | 72% | 989.2 hPa | 0 mm | 1.34 m/s, 292° | - | - |
| 1777963760 | 4.44° C | 74% | 989.2 hPa | 0 mm | 3.58 m/s, 242° | - | - |
| 1777962845 | 3.89° C | 76% | 989 hPa | 0 mm | 1.34 m/s, 289° | - | - |
| 1777961991 | 3.89° C | 77% | 989 hPa | 0 mm | 2.68 m/s, 261° | - | - |
| 1777961076 | 3.33° C | 80% | 989 hPa | 0 mm | 3.13 m/s, 250° | - | - |
| 1777960162 | 3.33° C | 83% | 989 hPa | 0 mm | 0.89 m/s, 229° | - | - |
| 1777959246 | 2.78° C | 87% | 989.1 hPa | 0 mm | 0 m/s | - | - |
| 1777957477 | 2.78° C | 87% | 989 hPa | 0 mm | 2.68 m/s, 286° | - | - |
| 1777956563 | 2.78° C | 88% | 988.9 hPa | 0 mm | 0.45 m/s, 256° | - | - |
* Rain latest hour (hover to see other rain measurements)
** Current wind speed in m/s (hover to see current wind gust speed)